sensor_id;sensor_type;location;lat;lon;timestamp;P1;durP1;ratioP1;P2;durP2;ratioP2
16705;SDS011;8469;60.136;15.180;2022-07-23T00:00:36;0.40;;;0.40;;
16705;SDS011;8469;60.136;15.180;2022-07-23T00:03:03;0.47;;;0.47;;
16705;SDS011;8469;60.136;15.180;2022-07-23T00:05:31;0.30;;;0.30;;
16705;SDS011;8469;60.136;15.180;2022-07-23T00:07:58;0.40;;;0.40;;
16705;SDS011;8469;60.136;15.180;2022-07-23T00:10:25;0.50;;;0.50;;
16705;SDS011;8469;60.136;15.180;2022-07-23T00:12:52;0.50;;;0.50;;
16705;SDS011;8469;60.136;15.180;2022-07-23T00:15:20;1.20;;;1.00;;
16705;SDS011;8469;60.136;15.180;2022-07-23T00:17:47;1.55;;;0.50;;
16705;SDS011;8469;60.136;15.180;2022-07-23T00:20:15;0.50;;;0.50;;
16705;SDS011;8469;60.136;15.180;2022-07-23T00:22:46;0.50;;;0.50;;
16705;SDS011;8469;60.136;15.180;2022-07-23T00:25:13;1.40;;;0.60;;
16705;SDS011;8469;60.136;15.180;2022-07-23T00:27:41;0.60;;;0.60;;
16705;SDS011;8469;60.136;15.180;2022-07-23T00:30:08;0.90;;;0.50;;
16705;SDS011;8469;60.136;15.180;2022-07-23T00:32:49;0.50;;;0.50;;
16705;SDS011;8469;60.136;15.180;2022-07-23T00:35:14;0.60;;;0.42;;
16705;SDS011;8469;60.136;15.180;2022-07-23T00:37:41;0.53;;;0.53;;
16705;SDS011;8469;60.136;15.180;2022-07-23T00:40:08;0.60;;;0.60;;
16705;SDS011;8469;60.136;15.180;2022-07-23T00:42:36;1.35;;;0.50;;
16705;SDS011;8469;60.136;15.180;2022-07-23T00:45:03;0.50;;;0.50;;
16705;SDS011;8469;60.136;15.180;2022-07-23T00:47:31;0.70;;;0.50;;
16705;SDS011;8469;60.136;15.180;2022-07-23T00:49:59;0.50;;;0.50;;
16705;SDS011;8469;60.136;15.180;2022-07-23T00:52:26;0.55;;;0.50;;
16705;SDS011;8469;60.136;15.180;2022-07-23T00:54:54;1.23;;;0.57;;
16705;SDS011;8469;60.136;15.180;2022-07-23T00:57:21;0.40;;;0.40;;
16705;SDS011;8469;60.136;15.180;2022-07-23T00:59:48;0.50;;;0.50;;
16705;SDS011;8469;60.136;15.180;2022-07-23T01:02:15;0.70;;;0.50;;
16705;SDS011;8469;60.136;15.180;2022-07-23T01:04:43;0.60;;;0.60;;
16705;SDS011;8469;60.136;15.180;2022-07-23T01:07:10;0.40;;;0.40;;
16705;SDS011;8469;60.136;15.180;2022-07-23T01:09:37;0.80;;;0.50;;
16705;SDS011;8469;60.136;15.180;2022-07-23T01:12:05;0.70;;;0.70;;
16705;SDS011;8469;60.136;15.180;2022-07-23T01:14:33;0.50;;;0.50;;
16705;SDS011;8469;60.136;15.180;2022-07-23T01:17:00;0.50;;;0.50;;
16705;SDS011;8469;60.136;15.180;2022-07-23T01:19:27;0.90;;;0.60;;
16705;SDS011;8469;60.136;15.180;2022-07-23T01:21:54;0.60;;;0.60;;
16705;SDS011;8469;60.136;15.180;2022-07-23T01:24:23;0.78;;;0.60;;
16705;SDS011;8469;60.136;15.180;2022-07-23T01:26:51;1.30;;;0.60;;
16705;SDS011;8469;60.136;15.180;2022-07-23T01:29:18;0.57;;;0.57;;
16705;SDS011;8469;60.136;15.180;2022-07-23T01:31:47;0.55;;;0.55;;
16705;SDS011;8469;60.136;15.180;2022-07-23T01:34:14;1.00;;;0.50;;
16705;SDS011;8469;60.136;15.180;2022-07-23T01:36:42;0.55;;;0.55;;
16705;SDS011;8469;60.136;15.180;2022-07-23T01:39:09;0.60;;;0.60;;
16705;SDS011;8469;60.136;15.180;2022-07-23T01:41:36;0.60;;;0.60;;
16705;SDS011;8469;60.136;15.180;2022-07-23T01:44:04;0.70;;;0.70;;
16705;SDS011;8469;60.136;15.180;2022-07-23T01:46:31;0.60;;;0.60;;
16705;SDS011;8469;60.136;15.180;2022-07-23T01:48:58;0.60;;;0.60;;
16705;SDS011;8469;60.136;15.180;2022-07-23T01:51:25;0.93;;;0.70;;
16705;SDS011;8469;60.136;15.180;2022-07-23T01:53:53;0.60;;;0.60;;
16705;SDS011;8469;60.136;15.180;2022-07-23T01:56:20;0.70;;;0.70;;
16705;SDS011;8469;60.136;15.180;2022-07-23T01:58:48;0.70;;;0.70;;
16705;SDS011;8469;60.136;15.180;2022-07-23T02:01:15;1.20;;;0.80;;
16705;SDS011;8469;60.136;15.180;2022-07-23T02:03:42;1.70;;;0.70;;
16705;SDS011;8469;60.136;15.180;2022-07-23T02:06:10;0.70;;;0.70;;
16705;SDS011;8469;60.136;15.180;2022-07-23T02:08:37;0.80;;;0.80;;
16705;SDS011;8469;60.136;15.180;2022-07-23T02:11:04;0.90;;;0.70;;
16705;SDS011;8469;60.136;15.180;2022-07-23T02:13:31;0.80;;;0.80;;
16705;SDS011;8469;60.136;15.180;2022-07-23T02:15:59;0.90;;;0.60;;
16705;SDS011;8469;60.136;15.180;2022-07-23T02:18:26;1.42;;;0.80;;
16705;SDS011;8469;60.136;15.180;2022-07-23T02:20:53;0.88;;;0.70;;
16705;SDS011;8469;60.136;15.180;2022-07-23T02:23:20;0.78;;;0.78;;
16705;SDS011;8469;60.136;15.180;2022-07-23T02:25:48;0.73;;;0.73;;
16705;SDS011;8469;60.136;15.180;2022-07-23T02:28:15;0.90;;;0.90;;
16705;SDS011;8469;60.136;15.180;2022-07-23T02:30:42;0.80;;;0.80;;
16705;SDS011;8469;60.136;15.180;2022-07-23T02:33:09;0.73;;;0.73;;
16705;SDS011;8469;60.136;15.180;2022-07-23T02:35:37;0.85;;;0.80;;
16705;SDS011;8469;60.136;15.180;2022-07-23T02:38:04;1.80;;;0.90;;
16705;SDS011;8469;60.136;15.180;2022-07-23T02:40:31;1.10;;;0.90;;
16705;SDS011;8469;60.136;15.180;2022-07-23T02:42:58;0.80;;;0.80;;
16705;SDS011;8469;60.136;15.180;2022-07-23T02:45:26;1.00;;;0.90;;
16705;SDS011;8469;60.136;15.180;2022-07-23T02:47:53;1.00;;;1.00;;
16705;SDS011;8469;60.136;15.180;2022-07-23T02:50:20;0.90;;;0.90;;
16705;SDS011;8469;60.136;15.180;2022-07-23T02:52:47;1.00;;;1.00;;
16705;SDS011;8469;60.136;15.180;2022-07-23T02:55:15;0.90;;;0.90;;
16705;SDS011;8469;60.136;15.180;2022-07-23T02:57:42;1.10;;;1.00;;
16705;SDS011;8469;60.136;15.180;2022-07-23T03:00:09;1.20;;;1.10;;
16705;SDS011;8469;60.136;15.180;2022-07-23T03:02:37;1.27;;;1.00;;
16705;SDS011;8469;60.136;15.180;2022-07-23T03:05:04;1.27;;;0.90;;
16705;SDS011;8469;60.136;15.180;2022-07-23T03:07:31;1.02;;;1.00;;
16705;SDS011;8469;60.136;15.180;2022-07-23T03:09:59;1.00;;;1.00;;
16705;SDS011;8469;60.136;15.180;2022-07-23T03:12:26;2.80;;;1.00;;
16705;SDS011;8469;60.136;15.180;2022-07-23T03:14:53;1.30;;;1.00;;
16705;SDS011;8469;60.136;15.180;2022-07-23T03:17:20;1.15;;;1.02;;
16705;SDS011;8469;60.136;15.180;2022-07-23T03:19:48;1.10;;;1.00;;
16705;SDS011;8469;60.136;15.180;2022-07-23T03:22:15;0.95;;;0.95;;
16705;SDS011;8469;60.136;15.180;2022-07-23T03:24:42;1.57;;;1.00;;
16705;SDS011;8469;60.136;15.180;2022-07-23T03:27:22;1.00;;;1.00;;
16705;SDS011;8469;60.136;15.180;2022-07-23T03:29:51;0.95;;;0.93;;
16705;SDS011;8469;60.136;15.180;2022-07-23T03:32:19;0.95;;;0.95;;
16705;SDS011;8469;60.136;15.180;2022-07-23T03:34:47;0.90;;;0.90;;
16705;SDS011;8469;60.136;15.180;2022-07-23T03:37:14;0.90;;;0.90;;
16705;SDS011;8469;60.136;15.180;2022-07-23T03:39:42;0.95;;;0.95;;
16705;SDS011;8469;60.136;15.180;2022-07-23T03:42:09;1.02;;;1.02;;
16705;SDS011;8469;60.136;15.180;2022-07-23T03:44:36;2.37;;;1.00;;
16705;SDS011;8469;60.136;15.180;2022-07-23T03:47:04;2.20;;;1.00;;
16705;SDS011;8469;60.136;15.180;2022-07-23T03:49:32;1.50;;;1.00;;
16705;SDS011;8469;60.136;15.180;2022-07-23T03:52:00;1.15;;;1.05;;
16705;SDS011;8469;60.136;15.180;2022-07-23T03:54:27;1.60;;;0.90;;
16705;SDS011;8469;60.136;15.180;2022-07-23T03:56:54;3.40;;;1.10;;
16705;SDS011;8469;60.136;15.180;2022-07-23T03:59:22;0.90;;;0.90;;
16705;SDS011;8469;60.136;15.180;2022-07-23T04:01:49;1.10;;;1.10;;
16705;SDS011;8469;60.136;15.180;2022-07-23T04:04:16;0.90;;;0.90;;
16705;SDS011;8469;60.136;15.180;2022-07-23T04:06:43;1.30;;;1.05;;
16705;SDS011;8469;60.136;15.180;2022-07-23T04:09:11;0.85;;;0.85;;
16705;SDS011;8469;60.136;15.180;2022-07-23T04:11:38;0.90;;;0.90;;
16705;SDS011;8469;60.136;15.180;2022-07-23T04:14:05;0.80;;;0.80;;
16705;SDS011;8469;60.136;15.180;2022-07-23T04:16:33;1.17;;;1.10;;
16705;SDS011;8469;60.136;15.180;2022-07-23T04:19:00;0.90;;;0.90;;
16705;SDS011;8469;60.136;15.180;2022-07-23T04:21:29;0.90;;;0.80;;
16705;SDS011;8469;60.136;15.180;2022-07-23T04:23:56;0.90;;;0.90;;
16705;SDS011;8469;60.136;15.180;2022-07-23T04:26:24;1.20;;;1.00;;
16705;SDS011;8469;60.136;15.180;2022-07-23T04:28:51;1.57;;;1.00;;
16705;SDS011;8469;60.136;15.180;2022-07-23T04:31:18;1.32;;;1.00;;
16705;SDS011;8469;60.136;15.180;2022-07-23T04:33:46;1.35;;;0.90;;
16705;SDS011;8469;60.136;15.180;2022-07-23T04:36:13;0.90;;;0.90;;
16705;SDS011;8469;60.136;15.180;2022-07-23T04:38:40;0.80;;;0.80;;
16705;SDS011;8469;60.136;15.180;2022-07-23T04:41:07;1.30;;;0.90;;
16705;SDS011;8469;60.136;15.180;2022-07-23T04:43:34;0.90;;;0.90;;
16705;SDS011;8469;60.136;15.180;2022-07-23T04:46:02;0.90;;;0.90;;
16705;SDS011;8469;60.136;15.180;2022-07-23T04:48:31;0.80;;;0.80;;
16705;SDS011;8469;60.136;15.180;2022-07-23T04:50:58;1.32;;;0.93;;
16705;SDS011;8469;60.136;15.180;2022-07-23T04:53:25;1.10;;;0.90;;
16705;SDS011;8469;60.136;15.180;2022-07-23T04:55:53;0.80;;;0.80;;
16705;SDS011;8469;60.136;15.180;2022-07-23T04:58:20;0.90;;;0.90;;
16705;SDS011;8469;60.136;15.180;2022-07-23T05:00:48;0.80;;;0.80;;
16705;SDS011;8469;60.136;15.180;2022-07-23T05:03:15;0.97;;;0.97;;
16705;SDS011;8469;60.136;15.180;2022-07-23T05:05:42;0.90;;;0.90;;
16705;SDS011;8469;60.136;15.180;2022-07-23T05:08:09;2.20;;;0.90;;
16705;SDS011;8469;60.136;15.180;2022-07-23T05:10:37;0.80;;;0.80;;
16705;SDS011;8469;60.136;15.180;2022-07-23T05:13:04;0.80;;;0.80;;
16705;SDS011;8469;60.136;15.180;2022-07-23T05:15:31;1.80;;;0.80;;
16705;SDS011;8469;60.136;15.180;2022-07-23T05:17:58;0.80;;;0.80;;
16705;SDS011;8469;60.136;15.180;2022-07-23T05:20:26;0.80;;;0.80;;
16705;SDS011;8469;60.136;15.180;2022-07-23T05:22:53;1.80;;;0.90;;
16705;SDS011;8469;60.136;15.180;2022-07-23T05:25:20;1.05;;;0.82;;
16705;SDS011;8469;60.136;15.180;2022-07-23T05:27:48;1.00;;;0.90;;
16705;SDS011;8469;60.136;15.180;2022-07-23T05:30:15;0.80;;;0.80;;
16705;SDS011;8469;60.136;15.180;2022-07-23T05:32:42;0.85;;;0.85;;
16705;SDS011;8469;60.136;15.180;2022-07-23T05:35:09;0.90;;;0.90;;
16705;SDS011;8469;60.136;15.180;2022-07-23T05:37:37;0.98;;;0.98;;
16705;SDS011;8469;60.136;15.180;2022-07-23T05:40:08;2.00;;;1.00;;
16705;SDS011;8469;60.136;15.180;2022-07-23T05:42:36;1.45;;;0.90;;
16705;SDS011;8469;60.136;15.180;2022-07-23T05:45:05;0.80;;;0.80;;
16705;SDS011;8469;60.136;15.180;2022-07-23T05:47:39;0.80;;;0.80;;
16705;SDS011;8469;60.136;15.180;2022-07-23T05:50:06;0.70;;;0.70;;
16705;SDS011;8469;60.136;15.180;2022-07-23T05:52:33;0.82;;;0.82;;
16705;SDS011;8469;60.136;15.180;2022-07-23T05:55:01;0.90;;;0.90;;
16705;SDS011;8469;60.136;15.180;2022-07-23T05:57:28;1.05;;;0.72;;
16705;SDS011;8469;60.136;15.180;2022-07-23T05:59:55;0.80;;;0.80;;
16705;SDS011;8469;60.136;15.180;2022-07-23T06:02:22;1.50;;;0.90;;
16705;SDS011;8469;60.136;15.180;2022-07-23T06:04:50;0.80;;;0.80;;
16705;SDS011;8469;60.136;15.180;2022-07-23T06:07:17;1.32;;;0.90;;
16705;SDS011;8469;60.136;15.180;2022-07-23T06:09:44;1.02;;;0.90;;
16705;SDS011;8469;60.136;15.180;2022-07-23T06:12:13;0.80;;;0.80;;
16705;SDS011;8469;60.136;15.180;2022-07-23T06:14:40;1.70;;;0.90;;
16705;SDS011;8469;60.136;15.180;2022-07-23T06:17:07;0.90;;;0.90;;
16705;SDS011;8469;60.136;15.180;2022-07-23T06:19:35;0.80;;;0.80;;
16705;SDS011;8469;60.136;15.180;2022-07-23T06:22:02;2.05;;;0.70;;
16705;SDS011;8469;60.136;15.180;2022-07-23T06:24:29;0.80;;;0.70;;
16705;SDS011;8469;60.136;15.180;2022-07-23T06:26:57;1.72;;;0.90;;
16705;SDS011;8469;60.136;15.180;2022-07-23T06:29:24;0.80;;;0.80;;
16705;SDS011;8469;60.136;15.180;2022-07-23T06:31:51;2.05;;;1.05;;
16705;SDS011;8469;60.136;15.180;2022-07-23T06:34:19;0.90;;;0.90;;
16705;SDS011;8469;60.136;15.180;2022-07-23T06:36:46;1.10;;;0.70;;
16705;SDS011;8469;60.136;15.180;2022-07-23T06:39:13;1.32;;;0.80;;
16705;SDS011;8469;60.136;15.180;2022-07-23T06:41:40;0.78;;;0.78;;
16705;SDS011;8469;60.136;15.180;2022-07-23T06:44:08;1.20;;;0.80;;
16705;SDS011;8469;60.136;15.180;2022-07-23T06:46:35;0.60;;;0.60;;
16705;SDS011;8469;60.136;15.180;2022-07-23T06:49:02;0.70;;;0.70;;
16705;SDS011;8469;60.136;15.180;2022-07-23T06:51:30;0.60;;;0.60;;
16705;SDS011;8469;60.136;15.180;2022-07-23T06:53:57;0.90;;;0.77;;
16705;SDS011;8469;60.136;15.180;2022-07-23T06:56:25;1.90;;;0.80;;
16705;SDS011;8469;60.136;15.180;2022-07-23T06:58:52;0.70;;;0.70;;
16705;SDS011;8469;60.136;15.180;2022-07-23T07:01:19;2.10;;;0.90;;
16705;SDS011;8469;60.136;15.180;2022-07-23T07:03:47;0.73;;;0.73;;
16705;SDS011;8469;60.136;15.180;2022-07-23T07:06:14;0.70;;;0.70;;
16705;SDS011;8469;60.136;15.180;2022-07-23T07:08:42;1.75;;;0.75;;
16705;SDS011;8469;60.136;15.180;2022-07-23T07:11:10;0.80;;;0.68;;
16705;SDS011;8469;60.136;15.180;2022-07-23T07:13:37;0.80;;;0.70;;
16705;SDS011;8469;60.136;15.180;2022-07-23T07:16:05;0.70;;;0.62;;
16705;SDS011;8469;60.136;15.180;2022-07-23T07:18:32;1.17;;;0.80;;
16705;SDS011;8469;60.136;15.180;2022-07-23T07:20:59;1.37;;;0.85;;
16705;SDS011;8469;60.136;15.180;2022-07-23T07:23:27;0.60;;;0.60;;
16705;SDS011;8469;60.136;15.180;2022-07-23T07:25:54;6.50;;;0.73;;
16705;SDS011;8469;60.136;15.180;2022-07-23T07:28:21;1.30;;;0.68;;
16705;SDS011;8469;60.136;15.180;2022-07-23T07:30:48;3.70;;;0.60;;
16705;SDS011;8469;60.136;15.180;2022-07-23T07:33:16;0.78;;;0.60;;
16705;SDS011;8469;60.136;15.180;2022-07-23T07:35:43;0.90;;;0.50;;
16705;SDS011;8469;60.136;15.180;2022-07-23T07:38:10;1.42;;;0.60;;
16705;SDS011;8469;60.136;15.180;2022-07-23T07:40:37;0.70;;;0.70;;
16705;SDS011;8469;60.136;15.180;2022-07-23T07:43:05;0.88;;;0.75;;
16705;SDS011;8469;60.136;15.180;2022-07-23T07:45:32;2.30;;;0.70;;
16705;SDS011;8469;60.136;15.180;2022-07-23T07:47:59;0.70;;;0.70;;
16705;SDS011;8469;60.136;15.180;2022-07-23T07:50:27;1.50;;;0.60;;
16705;SDS011;8469;60.136;15.180;2022-07-23T07:52:54;0.60;;;0.60;;
16705;SDS011;8469;60.136;15.180;2022-07-23T07:55:21;1.20;;;0.85;;
16705;SDS011;8469;60.136;15.180;2022-07-23T07:57:48;0.83;;;0.53;;
16705;SDS011;8469;60.136;15.180;2022-07-23T08:00:16;2.20;;;0.60;;
16705;SDS011;8469;60.136;15.180;2022-07-23T08:05:12;1.17;;;0.78;;
16705;SDS011;8469;60.136;15.180;2022-07-23T08:07:40;0.72;;;0.60;;
16705;SDS011;8469;60.136;15.180;2022-07-23T08:10:08;0.93;;;0.65;;
16705;SDS011;8469;60.136;15.180;2022-07-23T08:12:39;4.87;;;0.90;;
16705;SDS011;8469;60.136;15.180;2022-07-23T08:15:07;1.70;;;0.60;;
16705;SDS011;8469;60.136;15.180;2022-07-23T08:17:35;1.70;;;0.62;;
16705;SDS011;8469;60.136;15.180;2022-07-23T08:20:03;1.07;;;0.90;;
16705;SDS011;8469;60.136;15.180;2022-07-23T08:23:16;1.45;;;0.88;;
16705;SDS011;8469;60.136;15.180;2022-07-23T08:24:59;0.80;;;0.80;;
16705;SDS011;8469;60.136;15.180;2022-07-23T08:27:26;1.10;;;1.00;;
16705;SDS011;8469;60.136;15.180;2022-07-23T08:29:54;1.20;;;0.80;;
16705;SDS011;8469;60.136;15.180;2022-07-23T08:32:21;0.95;;;0.90;;
16705;SDS011;8469;60.136;15.180;2022-07-23T08:34:48;1.92;;;0.90;;
16705;SDS011;8469;60.136;15.180;2022-07-23T08:37:15;1.10;;;1.10;;
16705;SDS011;8469;60.136;15.180;2022-07-23T08:39:43;1.50;;;1.00;;
16705;SDS011;8469;60.136;15.180;2022-07-23T08:42:10;1.00;;;1.00;;
16705;SDS011;8469;60.136;15.180;2022-07-23T08:44:38;1.95;;;1.10;;
16705;SDS011;8469;60.136;15.180;2022-07-23T08:47:07;1.20;;;1.10;;
16705;SDS011;8469;60.136;15.180;2022-07-23T08:49:35;6.37;;;1.27;;
16705;SDS011;8469;60.136;15.180;2022-07-23T08:52:04;3.05;;;1.07;;
16705;SDS011;8469;60.136;15.180;2022-07-23T08:54:31;1.75;;;0.90;;
16705;SDS011;8469;60.136;15.180;2022-07-23T08:56:59;2.62;;;1.00;;
16705;SDS011;8469;60.136;15.180;2022-07-23T08:59:26;1.10;;;1.10;;
16705;SDS011;8469;60.136;15.180;2022-07-23T09:02:03;1.45;;;1.00;;
16705;SDS011;8469;60.136;15.180;2022-07-23T09:04:31;2.02;;;1.00;;
16705;SDS011;8469;60.136;15.180;2022-07-23T09:06:58;1.75;;;1.10;;
16705;SDS011;8469;60.136;15.180;2022-07-23T09:09:26;1.77;;;1.00;;
16705;SDS011;8469;60.136;15.180;2022-07-23T09:12:08;1.77;;;1.10;;
16705;SDS011;8469;60.136;15.180;2022-07-23T09:14:40;1.22;;;1.17;;
16705;SDS011;8469;60.136;15.180;2022-07-23T09:17:11;1.60;;;1.00;;
16705;SDS011;8469;60.136;15.180;2022-07-23T09:19:38;2.20;;;0.90;;
16705;SDS011;8469;60.136;15.180;2022-07-23T09:22:22;1.17;;;1.00;;
16705;SDS011;8469;60.136;15.180;2022-07-23T09:25:08;1.40;;;0.90;;
16705;SDS011;8469;60.136;15.180;2022-07-23T09:30:24;1.20;;;0.80;;
16705;SDS011;8469;60.136;15.180;2022-07-23T09:35:50;2.00;;;0.90;;
16705;SDS011;8469;60.136;15.180;2022-07-23T09:38:17;1.60;;;0.80;;
16705;SDS011;8469;60.136;15.180;2022-07-23T09:40:46;2.30;;;0.80;;
16705;SDS011;8469;60.136;15.180;2022-07-23T09:43:14;0.80;;;0.80;;
16705;SDS011;8469;60.136;15.180;2022-07-23T09:45:42;2.10;;;0.90;;
16705;SDS011;8469;60.136;15.180;2022-07-23T09:48:16;1.92;;;0.90;;
16705;SDS011;8469;60.136;15.180;2022-07-23T09:50:41;0.80;;;0.80;;
16705;SDS011;8469;60.136;15.180;2022-07-23T09:53:09;1.47;;;0.80;;
16705;SDS011;8469;60.136;15.180;2022-07-23T09:55:37;2.02;;;0.90;;
16705;SDS011;8469;60.136;15.180;2022-07-23T09:58:07;1.00;;;0.80;;
16705;SDS011;8469;60.136;15.180;2022-07-23T10:00:40;1.67;;;0.80;;
16705;SDS011;8469;60.136;15.180;2022-07-23T10:03:08;2.57;;;0.80;;
16705;SDS011;8469;60.136;15.180;2022-07-23T10:05:36;3.12;;;0.82;;
16705;SDS011;8469;60.136;15.180;2022-07-23T10:08:04;2.20;;;0.90;;
16705;SDS011;8469;60.136;15.180;2022-07-23T10:10:33;1.45;;;1.07;;
16705;SDS011;8469;60.136;15.180;2022-07-23T10:13:00;3.42;;;0.80;;
16705;SDS011;8469;60.136;15.180;2022-07-23T10:15:46;0.70;;;0.70;;
16705;SDS011;8469;60.136;15.180;2022-07-23T10:18:13;0.80;;;0.80;;
16705;SDS011;8469;60.136;15.180;2022-07-23T10:20:40;0.80;;;0.80;;
16705;SDS011;8469;60.136;15.180;2022-07-23T10:25:41;2.55;;;0.93;;
16705;SDS011;8469;60.136;15.180;2022-07-23T10:28:16;3.87;;;0.90;;
16705;SDS011;8469;60.136;15.180;2022-07-23T10:30:43;1.10;;;0.82;;
16705;SDS011;8469;60.136;15.180;2022-07-23T10:38:19;1.00;;;0.90;;
16705;SDS011;8469;60.136;15.180;2022-07-23T10:40:54;0.80;;;0.80;;
16705;SDS011;8469;60.136;15.180;2022-07-23T10:43:22;0.87;;;0.87;;
16705;SDS011;8469;60.136;15.180;2022-07-23T10:45:50;1.22;;;0.70;;
16705;SDS011;8469;60.136;15.180;2022-07-23T10:48:24;0.70;;;0.70;;
16705;SDS011;8469;60.136;15.180;2022-07-23T10:51:18;0.80;;;0.80;;
16705;SDS011;8469;60.136;15.180;2022-07-23T10:59:02;1.67;;;0.70;;
16705;SDS011;8469;60.136;15.180;2022-07-23T11:01:36;1.30;;;0.75;;
16705;SDS011;8469;60.136;15.180;2022-07-23T11:04:04;0.75;;;0.53;;
16705;SDS011;8469;60.136;15.180;2022-07-23T11:10:00;0.62;;;0.62;;
16705;SDS011;8469;60.136;15.180;2022-07-23T11:11:49;6.20;;;0.80;;
16705;SDS011;8469;60.136;15.180;2022-07-23T11:14:17;1.07;;;0.60;;
16705;SDS011;8469;60.136;15.180;2022-07-23T11:16:49;0.40;;;0.40;;
16705;SDS011;8469;60.136;15.180;2022-07-23T11:19:15;0.60;;;0.60;;
16705;SDS011;8469;60.136;15.180;2022-07-23T11:21:43;0.60;;;0.60;;
16705;SDS011;8469;60.136;15.180;2022-07-23T11:24:14;1.22;;;0.60;;
16705;SDS011;8469;60.136;15.180;2022-07-23T11:26:46;0.70;;;0.70;;
16705;SDS011;8469;60.136;15.180;2022-07-23T11:32:05;1.20;;;0.70;;
16705;SDS011;8469;60.136;15.180;2022-07-23T11:34:33;0.65;;;0.62;;
16705;SDS011;8469;60.136;15.180;2022-07-23T11:37:01;0.57;;;0.57;;
16705;SDS011;8469;60.136;15.180;2022-07-23T11:39:29;0.60;;;0.60;;
16705;SDS011;8469;60.136;15.180;2022-07-23T11:41:57;0.65;;;0.65;;
16705;SDS011;8469;60.136;15.180;2022-07-23T11:44:32;0.70;;;0.70;;
16705;SDS011;8469;60.136;15.180;2022-07-23T11:47:00;0.70;;;0.70;;
16705;SDS011;8469;60.136;15.180;2022-07-23T11:49:28;0.60;;;0.60;;
16705;SDS011;8469;60.136;15.180;2022-07-23T11:54:33;1.20;;;0.60;;
16705;SDS011;8469;60.136;15.180;2022-07-23T11:57:01;2.58;;;0.75;;
16705;SDS011;8469;60.136;15.180;2022-07-23T11:59:30;0.70;;;0.70;;
16705;SDS011;8469;60.136;15.180;2022-07-23T12:02:01;0.98;;;0.98;;
16705;SDS011;8469;60.136;15.180;2022-07-23T12:04:38;2.50;;;0.70;;
16705;SDS011;8469;60.136;15.180;2022-07-23T12:09:51;0.67;;;0.67;;
16705;SDS011;8469;60.136;15.180;2022-07-23T12:12:18;0.70;;;0.70;;
16705;SDS011;8469;60.136;15.180;2022-07-23T12:14:52;0.60;;;0.60;;
16705;SDS011;8469;60.136;15.180;2022-07-23T12:17:19;0.75;;;0.75;;
16705;SDS011;8469;60.136;15.180;2022-07-23T12:19:47;0.80;;;0.70;;
16705;SDS011;8469;60.136;15.180;2022-07-23T12:22:15;0.72;;;0.72;;
16705;SDS011;8469;60.136;15.180;2022-07-23T12:24:55;1.10;;;0.60;;
16705;SDS011;8469;60.136;15.180;2022-07-23T12:27:23;1.60;;;0.70;;
16705;SDS011;8469;60.136;15.180;2022-07-23T12:29:50;0.62;;;0.62;;
16705;SDS011;8469;60.136;15.180;2022-07-23T12:34:47;2.08;;;0.70;;
16705;SDS011;8469;60.136;15.180;2022-07-23T12:37:28;0.70;;;0.70;;
16705;SDS011;8469;60.136;15.180;2022-07-23T12:39:56;4.58;;;0.82;;
16705;SDS011;8469;60.136;15.180;2022-07-23T12:42:23;0.75;;;0.75;;
16705;SDS011;8469;60.136;15.180;2022-07-23T12:45:06;0.60;;;0.60;;
16705;SDS011;8469;60.136;15.180;2022-07-23T12:47:53;0.80;;;0.60;;
16705;SDS011;8469;60.136;15.180;2022-07-23T12:53:12;0.70;;;0.70;;
16705;SDS011;8469;60.136;15.180;2022-07-23T12:55:40;0.60;;;0.60;;
16705;SDS011;8469;60.136;15.180;2022-07-23T12:58:13;0.80;;;0.80;;
16705;SDS011;8469;60.136;15.180;2022-07-23T13:03:23;0.80;;;0.55;;
16705;SDS011;8469;60.136;15.180;2022-07-23T13:05:51;1.37;;;0.72;;
16705;SDS011;8469;60.136;15.180;2022-07-23T13:08:18;0.80;;;0.80;;
16705;SDS011;8469;60.136;15.180;2022-07-23T13:10:46;0.80;;;0.80;;
16705;SDS011;8469;60.136;15.180;2022-07-23T13:13:15;0.75;;;0.75;;
16705;SDS011;8469;60.136;15.180;2022-07-23T13:15:42;0.70;;;0.70;;
16705;SDS011;8469;60.136;15.180;2022-07-23T13:18:10;0.90;;;0.70;;
16705;SDS011;8469;60.136;15.180;2022-07-23T13:20:37;0.87;;;0.87;;
16705;SDS011;8469;60.136;15.180;2022-07-23T13:23:06;1.17;;;0.50;;
16705;SDS011;8469;60.136;15.180;2022-07-23T13:25:33;0.70;;;0.70;;
16705;SDS011;8469;60.136;15.180;2022-07-23T13:28:01;0.70;;;0.70;;
16705;SDS011;8469;60.136;15.180;2022-07-23T13:30:28;0.62;;;0.62;;
16705;SDS011;8469;60.136;15.180;2022-07-23T13:32:56;0.75;;;0.55;;
16705;SDS011;8469;60.136;15.180;2022-07-23T13:35:23;0.60;;;0.60;;
16705;SDS011;8469;60.136;15.180;2022-07-23T13:37:50;1.27;;;0.62;;
16705;SDS011;8469;60.136;15.180;2022-07-23T13:40:18;0.62;;;0.62;;
16705;SDS011;8469;60.136;15.180;2022-07-23T13:42:45;1.27;;;0.70;;
16705;SDS011;8469;60.136;15.180;2022-07-23T13:45:12;0.70;;;0.70;;
16705;SDS011;8469;60.136;15.180;2022-07-23T13:47:39;0.85;;;0.70;;
16705;SDS011;8469;60.136;15.180;2022-07-23T13:50:07;2.30;;;0.65;;
16705;SDS011;8469;60.136;15.180;2022-07-23T13:52:34;0.80;;;0.80;;
16705;SDS011;8469;60.136;15.180;2022-07-23T13:55:02;0.93;;;0.70;;
16705;SDS011;8469;60.136;15.180;2022-07-23T13:57:30;1.20;;;0.72;;
16705;SDS011;8469;60.136;15.180;2022-07-23T13:59:58;0.60;;;0.60;;
16705;SDS011;8469;60.136;15.180;2022-07-23T14:02:25;2.30;;;0.68;;
16705;SDS011;8469;60.136;15.180;2022-07-23T14:04:52;1.20;;;0.60;;
16705;SDS011;8469;60.136;15.180;2022-07-23T14:07:20;1.92;;;0.72;;
16705;SDS011;8469;60.136;15.180;2022-07-23T14:09:47;1.80;;;0.60;;
16705;SDS011;8469;60.136;15.180;2022-07-23T14:12:14;0.60;;;0.60;;
16705;SDS011;8469;60.136;15.180;2022-07-23T14:14:41;1.35;;;0.70;;
16705;SDS011;8469;60.136;15.180;2022-07-23T14:17:09;0.80;;;0.80;;
16705;SDS011;8469;60.136;15.180;2022-07-23T14:19:36;1.45;;;0.70;;
16705;SDS011;8469;60.136;15.180;2022-07-23T14:22:04;0.65;;;0.65;;
16705;SDS011;8469;60.136;15.180;2022-07-23T14:24:31;1.90;;;0.65;;
16705;SDS011;8469;60.136;15.180;2022-07-23T14:27:03;0.70;;;0.70;;
16705;SDS011;8469;60.136;15.180;2022-07-23T14:29:28;1.10;;;0.68;;
16705;SDS011;8469;60.136;15.180;2022-07-23T14:31:55;1.32;;;0.70;;
16705;SDS011;8469;60.136;15.180;2022-07-23T14:34:23;0.88;;;0.75;;
16705;SDS011;8469;60.136;15.180;2022-07-23T14:36:51;1.57;;;0.70;;
16705;SDS011;8469;60.136;15.180;2022-07-23T14:39:19;0.80;;;0.80;;
16705;SDS011;8469;60.136;15.180;2022-07-23T14:41:46;0.70;;;0.70;;
16705;SDS011;8469;60.136;15.180;2022-07-23T14:44:13;0.70;;;0.70;;
16705;SDS011;8469;60.136;15.180;2022-07-23T14:46:40;0.70;;;0.70;;
16705;SDS011;8469;60.136;15.180;2022-07-23T14:49:08;0.85;;;0.70;;
16705;SDS011;8469;60.136;15.180;2022-07-23T14:51:35;1.20;;;1.00;;
16705;SDS011;8469;60.136;15.180;2022-07-23T14:54:03;0.80;;;0.70;;
16705;SDS011;8469;60.136;15.180;2022-07-23T14:56:31;0.60;;;0.60;;
16705;SDS011;8469;60.136;15.180;2022-07-23T14:58:59;1.00;;;0.77;;
16705;SDS011;8469;60.136;15.180;2022-07-23T15:01:27;1.60;;;0.80;;
16705;SDS011;8469;60.136;15.180;2022-07-23T15:03:54;1.00;;;0.60;;
16705;SDS011;8469;60.136;15.180;2022-07-23T15:06:21;0.70;;;0.70;;
16705;SDS011;8469;60.136;15.180;2022-07-23T15:08:49;0.75;;;0.75;;
16705;SDS011;8469;60.136;15.180;2022-07-23T15:11:16;0.70;;;0.70;;
16705;SDS011;8469;60.136;15.180;2022-07-23T15:13:43;0.70;;;0.70;;
16705;SDS011;8469;60.136;15.180;2022-07-23T15:16:10;0.80;;;0.80;;
16705;SDS011;8469;60.136;15.180;2022-07-23T15:18:38;0.70;;;0.70;;
16705;SDS011;8469;60.136;15.180;2022-07-23T15:21:05;0.70;;;0.70;;
16705;SDS011;8469;60.136;15.180;2022-07-23T15:23:33;0.70;;;0.70;;
16705;SDS011;8469;60.136;15.180;2022-07-23T15:26:01;1.52;;;0.80;;
16705;SDS011;8469;60.136;15.180;2022-07-23T15:28:28;5.60;;;0.90;;
16705;SDS011;8469;60.136;15.180;2022-07-23T15:30:55;1.60;;;0.80;;
16705;SDS011;8469;60.136;15.180;2022-07-23T15:33:23;1.00;;;1.00;;